sensor_id;sensor_type;location;lat;lon;timestamp;pressure;altitude;pressure_sealevel;temperature
15845;BMP180;50807;52.436;13.346;2022-07-29T00:00:14;101510.00;;;22.80
15845;BMP180;50807;52.436;13.346;2022-07-29T00:00:45;101507.00;;;22.80
15845;BMP180;50807;52.436;13.346;2022-07-29T00:01:17;101514.00;;;22.80
15845;BMP180;50807;52.436;13.346;2022-07-29T00:01:48;101520.00;;;22.80
15845;BMP180;50807;52.436;13.346;2022-07-29T00:02:19;101526.00;;;22.80
15845;BMP180;50807;52.436;13.346;2022-07-29T00:02:50;101520.00;;;22.80
15845;BMP180;50807;52.436;13.346;2022-07-29T00:03:21;101516.00;;;22.80
15845;BMP180;50807;52.436;13.346;2022-07-29T00:03:51;101522.00;;;22.80
15845;BMP180;50807;52.436;13.346;2022-07-29T00:04:24;101520.00;;;22.80
15845;BMP180;50807;52.436;13.346;2022-07-29T00:04:55;101523.00;;;22.80
15845;BMP180;50807;52.436;13.346;2022-07-29T00:05:26;101524.00;;;22.80
15845;BMP180;50807;52.436;13.346;2022-07-29T00:05:58;101519.00;;;22.80
15845;BMP180;50807;52.436;13.346;2022-07-29T00:06:29;101519.00;;;22.80
15845;BMP180;50807;52.436;13.346;2022-07-29T00:06:59;101518.00;;;22.70
15845;BMP180;50807;52.436;13.346;2022-07-29T00:07:31;101518.00;;;22.80
15845;BMP180;50807;52.436;13.346;2022-07-29T00:08:02;101528.00;;;22.80
15845;BMP180;50807;52.436;13.346;2022-07-29T00:08:33;101517.00;;;22.80
15845;BMP180;50807;52.436;13.346;2022-07-29T00:09:05;101523.00;;;22.70
15845;BMP180;50807;52.436;13.346;2022-07-29T00:09:36;101518.00;;;22.70
15845;BMP180;50807;52.436;13.346;2022-07-29T00:10:07;101518.00;;;22.70
15845;BMP180;50807;52.436;13.346;2022-07-29T00:10:39;101507.00;;;22.70
15845;BMP180;50807;52.436;13.346;2022-07-29T00:11:10;101508.00;;;22.70
15845;BMP180;50807;52.436;13.346;2022-07-29T00:11:41;101511.00;;;22.70
15845;BMP180;50807;52.436;13.346;2022-07-29T00:12:12;101513.00;;;22.70
15845;BMP180;50807;52.436;13.346;2022-07-29T00:12:43;101510.00;;;22.70
15845;BMP180;50807;52.436;13.346;2022-07-29T00:13:14;101514.00;;;22.70
15845;BMP180;50807;52.436;13.346;2022-07-29T00:13:46;101521.00;;;22.70
15845;BMP180;50807;52.436;13.346;2022-07-29T00:14:17;101512.00;;;22.70
15845;BMP180;50807;52.436;13.346;2022-07-29T00:14:49;101508.00;;;22.70
15845;BMP180;50807;52.436;13.346;2022-07-29T00:15:20;101514.00;;;22.70
15845;BMP180;50807;52.436;13.346;2022-07-29T00:15:51;101514.00;;;22.70
15845;BMP180;50807;52.436;13.346;2022-07-29T00:16:22;101511.00;;;22.60
15845;BMP180;50807;52.436;13.346;2022-07-29T00:16:54;101516.00;;;22.70
15845;BMP180;50807;52.436;13.346;2022-07-29T00:17:25;101509.00;;;22.60
15845;BMP180;50807;52.436;13.346;2022-07-29T00:17:56;101509.00;;;22.60
15845;BMP180;50807;52.436;13.346;2022-07-29T00:18:28;101513.00;;;22.60
15845;BMP180;50807;52.436;13.346;2022-07-29T00:18:58;101508.00;;;22.60
15845;BMP180;50807;52.436;13.346;2022-07-29T00:19:30;101506.00;;;22.60
15845;BMP180;50807;52.436;13.346;2022-07-29T00:20:04;101508.00;;;22.60
15845;BMP180;50807;52.436;13.346;2022-07-29T00:20:35;101506.00;;;22.60
15845;BMP180;50807;52.436;13.346;2022-07-29T00:21:05;101503.00;;;22.60
15845;BMP180;50807;52.436;13.346;2022-07-29T00:21:37;101498.00;;;22.60
15845;BMP180;50807;52.436;13.346;2022-07-29T00:22:08;101511.00;;;22.60
15845;BMP180;50807;52.436;13.346;2022-07-29T00:22:39;101500.00;;;22.60
15845;BMP180;50807;52.436;13.346;2022-07-29T00:23:11;101499.00;;;22.60
15845;BMP180;50807;52.436;13.346;2022-07-29T00:23:42;101508.00;;;22.60
15845;BMP180;50807;52.436;13.346;2022-07-29T00:24:12;101491.00;;;22.60
15845;BMP180;50807;52.436;13.346;2022-07-29T00:24:44;101501.00;;;22.60
15845;BMP180;50807;52.436;13.346;2022-07-29T00:25:15;101502.00;;;22.60
15845;BMP180;50807;52.436;13.346;2022-07-29T00:25:46;101499.00;;;22.60
15845;BMP180;50807;52.436;13.346;2022-07-29T00:26:17;101503.00;;;22.60
15845;BMP180;50807;52.436;13.346;2022-07-29T00:26:48;101500.00;;;22.60
15845;BMP180;50807;52.436;13.346;2022-07-29T00:27:19;101502.00;;;22.60
15845;BMP180;50807;52.436;13.346;2022-07-29T00:27:51;101499.00;;;22.60
15845;BMP180;50807;52.436;13.346;2022-07-29T00:28:21;101502.00;;;22.60
15845;BMP180;50807;52.436;13.346;2022-07-29T00:28:52;101500.00;;;22.60
15845;BMP180;50807;52.436;13.346;2022-07-29T00:29:24;101505.00;;;22.50
15845;BMP180;50807;52.436;13.346;2022-07-29T00:29:55;101507.00;;;22.60
15845;BMP180;50807;52.436;13.346;2022-07-29T00:30:26;101500.00;;;22.50
15845;BMP180;50807;52.436;13.346;2022-07-29T00:30:58;101497.00;;;22.50
15845;BMP180;50807;52.436;13.346;2022-07-29T00:31:29;101500.00;;;22.50
15845;BMP180;50807;52.436;13.346;2022-07-29T00:32:00;101498.00;;;22.50
15845;BMP180;50807;52.436;13.346;2022-07-29T00:32:32;101498.00;;;22.50
15845;BMP180;50807;52.436;13.346;2022-07-29T00:33:03;101505.00;;;22.50
15845;BMP180;50807;52.436;13.346;2022-07-29T00:33:34;101496.00;;;22.50
15845;BMP180;50807;52.436;13.346;2022-07-29T00:34:05;101503.00;;;22.50
15845;BMP180;50807;52.436;13.346;2022-07-29T00:34:58;101497.00;;;22.40
15845;BMP180;50807;52.436;13.346;2022-07-29T00:35:47;101503.00;;;22.30
15845;BMP180;50807;52.436;13.346;2022-07-29T00:36:18;101504.00;;;22.40
15845;BMP180;50807;52.436;13.346;2022-07-29T00:36:48;101504.00;;;22.40
15845;BMP180;50807;52.436;13.346;2022-07-29T00:37:19;101500.00;;;22.40
15845;BMP180;50807;52.436;13.346;2022-07-29T00:37:51;101501.00;;;22.40
15845;BMP180;50807;52.436;13.346;2022-07-29T00:38:22;101503.00;;;22.40
15845;BMP180;50807;52.436;13.346;2022-07-29T00:38:54;101500.00;;;22.40
15845;BMP180;50807;52.436;13.346;2022-07-29T00:39:25;101505.00;;;22.40
15845;BMP180;50807;52.436;13.346;2022-07-29T00:39:55;101499.00;;;22.40
15845;BMP180;50807;52.436;13.346;2022-07-29T00:40:27;101507.00;;;22.40
15845;BMP180;50807;52.436;13.346;2022-07-29T00:40:58;101507.00;;;22.40
15845;BMP180;50807;52.436;13.346;2022-07-29T00:41:28;101501.00;;;22.40
15845;BMP180;50807;52.436;13.346;2022-07-29T00:42:03;101505.00;;;22.40
15845;BMP180;50807;52.436;13.346;2022-07-29T00:42:42;101504.00;;;22.30
15845;BMP180;50807;52.436;13.346;2022-07-29T00:43:14;101502.00;;;22.30
15845;BMP180;50807;52.436;13.346;2022-07-29T00:43:46;101512.00;;;22.30
15845;BMP180;50807;52.436;13.346;2022-07-29T00:44:17;101504.00;;;22.30
15845;BMP180;50807;52.436;13.346;2022-07-29T00:44:47;101507.00;;;22.30
15845;BMP180;50807;52.436;13.346;2022-07-29T00:45:19;101512.00;;;22.40
15845;BMP180;50807;52.436;13.346;2022-07-29T00:45:52;101509.00;;;22.40
15845;BMP180;50807;52.436;13.346;2022-07-29T00:46:23;101512.00;;;22.30
15845;BMP180;50807;52.436;13.346;2022-07-29T00:46:53;101507.00;;;22.40
15845;BMP180;50807;52.436;13.346;2022-07-29T00:47:25;101506.00;;;22.30
15845;BMP180;50807;52.436;13.346;2022-07-29T00:47:56;101501.00;;;22.30
15845;BMP180;50807;52.436;13.346;2022-07-29T00:48:27;101501.00;;;22.30
15845;BMP180;50807;52.436;13.346;2022-07-29T00:48:58;101502.00;;;22.30
15845;BMP180;50807;52.436;13.346;2022-07-29T00:50:11;101497.00;;;22.20
15845;BMP180;50807;52.436;13.346;2022-07-29T00:50:43;101497.00;;;22.30
15845;BMP180;50807;52.436;13.346;2022-07-29T00:51:14;101501.00;;;22.20
15845;BMP180;50807;52.436;13.346;2022-07-29T00:51:46;101499.00;;;22.20
15845;BMP180;50807;52.436;13.346;2022-07-29T00:52:17;101498.00;;;22.20
15845;BMP180;50807;52.436;13.346;2022-07-29T00:52:50;101494.00;;;22.20
15845;BMP180;50807;52.436;13.346;2022-07-29T00:53:22;101505.00;;;22.20
15845;BMP180;50807;52.436;13.346;2022-07-29T00:53:53;101490.00;;;22.20
15845;BMP180;50807;52.436;13.346;2022-07-29T00:54:26;101488.00;;;22.20
15845;BMP180;50807;52.436;13.346;2022-07-29T00:54:57;101483.00;;;22.20
15845;BMP180;50807;52.436;13.346;2022-07-29T00:55:29;101487.00;;;22.20
15845;BMP180;50807;52.436;13.346;2022-07-29T00:56:01;101491.00;;;22.20
15845;BMP180;50807;52.436;13.346;2022-07-29T00:56:33;101485.00;;;22.20
15845;BMP180;50807;52.436;13.346;2022-07-29T00:57:07;101492.00;;;22.20
15845;BMP180;50807;52.436;13.346;2022-07-29T00:57:39;101483.00;;;22.20
15845;BMP180;50807;52.436;13.346;2022-07-29T00:58:12;101493.00;;;22.10
15845;BMP180;50807;52.436;13.346;2022-07-29T00:58:44;101487.00;;;22.10
15845;BMP180;50807;52.436;13.346;2022-07-29T00:59:16;101490.00;;;22.10
15845;BMP180;50807;52.436;13.346;2022-07-29T00:59:47;101488.00;;;22.10
15845;BMP180;50807;52.436;13.346;2022-07-29T01:00:22;101483.00;;;22.10
15845;BMP180;50807;52.436;13.346;2022-07-29T01:00:54;101481.00;;;22.10
15845;BMP180;50807;52.436;13.346;2022-07-29T01:01:25;101486.00;;;22.10
15845;BMP180;50807;52.436;13.346;2022-07-29T01:01:56;101490.00;;;22.10
15845;BMP180;50807;52.436;13.346;2022-07-29T01:02:28;101493.00;;;22.10
15845;BMP180;50807;52.436;13.346;2022-07-29T01:02:59;101493.00;;;22.10
15845;BMP180;50807;52.436;13.346;2022-07-29T01:03:30;101488.00;;;22.10
15845;BMP180;50807;52.436;13.346;2022-07-29T01:04:01;101483.00;;;22.10
15845;BMP180;50807;52.436;13.346;2022-07-29T01:04:32;101485.00;;;22.10
15845;BMP180;50807;52.436;13.346;2022-07-29T01:05:06;101479.00;;;22.10
15845;BMP180;50807;52.436;13.346;2022-07-29T01:05:41;101483.00;;;22.00
15845;BMP180;50807;52.436;13.346;2022-07-29T01:06:12;101486.00;;;22.10
15845;BMP180;50807;52.436;13.346;2022-07-29T01:06:43;101480.00;;;22.10
15845;BMP180;50807;52.436;13.346;2022-07-29T01:07:15;101485.00;;;22.10
15845;BMP180;50807;52.436;13.346;2022-07-29T01:07:51;101481.00;;;22.00
15845;BMP180;50807;52.436;13.346;2022-07-29T01:08:24;101480.00;;;22.00
15845;BMP180;50807;52.436;13.346;2022-07-29T01:08:56;101483.00;;;22.00
15845;BMP180;50807;52.436;13.346;2022-07-29T01:09:27;101485.00;;;22.00
15845;BMP180;50807;52.436;13.346;2022-07-29T01:10:01;101478.00;;;22.00
15845;BMP180;50807;52.436;13.346;2022-07-29T01:10:33;101483.00;;;22.00
15845;BMP180;50807;52.436;13.346;2022-07-29T01:11:05;101482.00;;;22.00
15845;BMP180;50807;52.436;13.346;2022-07-29T01:11:38;101482.00;;;22.00
15845;BMP180;50807;52.436;13.346;2022-07-29T01:12:10;101478.00;;;22.00
15845;BMP180;50807;52.436;13.346;2022-07-29T01:12:46;101478.00;;;21.90
15845;BMP180;50807;52.436;13.346;2022-07-29T01:13:19;101485.00;;;22.00
15845;BMP180;50807;52.436;13.346;2022-07-29T01:13:52;101474.00;;;21.90
15845;BMP180;50807;52.436;13.346;2022-07-29T01:14:23;101480.00;;;22.00
15845;BMP180;50807;52.436;13.346;2022-07-29T01:14:55;101480.00;;;21.90
15845;BMP180;50807;52.436;13.346;2022-07-29T01:15:27;101475.00;;;22.00
15845;BMP180;50807;52.436;13.346;2022-07-29T01:16:09;101474.00;;;21.90
15845;BMP180;50807;52.436;13.346;2022-07-29T01:16:48;101475.00;;;21.80
15845;BMP180;50807;52.436;13.346;2022-07-29T01:17:26;101481.00;;;21.80
15845;BMP180;50807;52.436;13.346;2022-07-29T01:18:06;101477.00;;;21.80
15845;BMP180;50807;52.436;13.346;2022-07-29T01:18:46;101476.00;;;21.70
15845;BMP180;50807;52.436;13.346;2022-07-29T01:19:46;101484.00;;;21.60
15845;BMP180;50807;52.436;13.346;2022-07-29T01:20:26;101485.00;;;21.60
15845;BMP180;50807;52.436;13.346;2022-07-29T01:21:34;101472.00;;;21.50
15845;BMP180;50807;52.436;13.346;2022-07-29T01:22:25;101474.00;;;21.50
15845;BMP180;50807;52.436;13.346;2022-07-29T01:23:20;101478.00;;;21.50
15845;BMP180;50807;52.436;13.346;2022-07-29T01:24:14;101472.00;;;21.40
15845;BMP180;50807;52.436;13.346;2022-07-29T01:25:19;101462.00;;;21.40
15845;BMP180;50807;52.436;13.346;2022-07-29T01:26:17;101465.00;;;21.30
15845;BMP180;50807;52.436;13.346;2022-07-29T01:27:04;101461.00;;;21.40
15845;BMP180;50807;52.436;13.346;2022-07-29T01:27:55;101462.00;;;21.40
15845;BMP180;50807;52.436;13.346;2022-07-29T01:29:12;101459.00;;;21.20
15845;BMP180;50807;52.436;13.346;2022-07-29T01:29:53;101458.00;;;21.30
15845;BMP180;50807;52.436;13.346;2022-07-29T01:30:27;101451.00;;;21.40
15845;BMP180;50807;52.436;13.346;2022-07-29T01:31:03;101447.00;;;21.40
15845;BMP180;50807;52.436;13.346;2022-07-29T01:31:44;101439.00;;;21.40
15845;BMP180;50807;52.436;13.346;2022-07-29T01:32:20;101442.00;;;21.40
15845;BMP180;50807;52.436;13.346;2022-07-29T01:32:59;101440.00;;;21.40
15845;BMP180;50807;52.436;13.346;2022-07-29T01:33:36;101435.00;;;21.40
15845;BMP180;50807;52.436;13.346;2022-07-29T01:34:25;101426.00;;;21.40
15845;BMP180;50807;52.436;13.346;2022-07-29T01:35:03;101430.00;;;21.40
15845;BMP180;50807;52.436;13.346;2022-07-29T01:35:39;101430.00;;;21.40
15845;BMP180;50807;52.436;13.346;2022-07-29T01:36:16;101432.00;;;21.40
15845;BMP180;50807;52.436;13.346;2022-07-29T01:36:55;101436.00;;;21.40
15845;BMP180;50807;52.436;13.346;2022-07-29T01:37:38;101435.00;;;21.40
15845;BMP180;50807;52.436;13.346;2022-07-29T01:38:17;101425.00;;;21.40
15845;BMP180;50807;52.436;13.346;2022-07-29T01:38:59;101427.00;;;21.40
15845;BMP180;50807;52.436;13.346;2022-07-29T01:39:36;101430.00;;;21.40
15845;BMP180;50807;52.436;13.346;2022-07-29T01:40:16;101426.00;;;21.40
15845;BMP180;50807;52.436;13.346;2022-07-29T01:40:54;101425.00;;;21.40
15845;BMP180;50807;52.436;13.346;2022-07-29T01:41:31;101420.00;;;21.40
15845;BMP180;50807;52.436;13.346;2022-07-29T01:42:13;101418.00;;;21.40
15845;BMP180;50807;52.436;13.346;2022-07-29T01:42:50;101419.00;;;21.40
15845;BMP180;50807;52.436;13.346;2022-07-29T01:43:34;101410.00;;;21.30
15845;BMP180;50807;52.436;13.346;2022-07-29T01:44:16;101409.00;;;21.30
15845;BMP180;50807;52.436;13.346;2022-07-29T01:44:55;101414.00;;;21.30
15845;BMP180;50807;52.436;13.346;2022-07-29T01:45:37;101411.00;;;21.30
15845;BMP180;50807;52.436;13.346;2022-07-29T01:46:14;101405.00;;;21.30
15845;BMP180;50807;52.436;13.346;2022-07-29T01:46:56;101414.00;;;21.30
15845;BMP180;50807;52.436;13.346;2022-07-29T01:47:38;101409.00;;;21.30
15845;BMP180;50807;52.436;13.346;2022-07-29T01:48:16;101410.00;;;21.30
15845;BMP180;50807;52.436;13.346;2022-07-29T01:48:57;101415.00;;;21.30
15845;BMP180;50807;52.436;13.346;2022-07-29T01:49:36;101403.00;;;21.30
15845;BMP180;50807;52.436;13.346;2022-07-29T01:50:14;101412.00;;;21.30
15845;BMP180;50807;52.436;13.346;2022-07-29T01:50:51;101405.00;;;21.30
15845;BMP180;50807;52.436;13.346;2022-07-29T01:51:32;101402.00;;;21.30
15845;BMP180;50807;52.436;13.346;2022-07-29T01:52:09;101410.00;;;21.30
15845;BMP180;50807;52.436;13.346;2022-07-29T01:52:49;101409.00;;;21.30
15845;BMP180;50807;52.436;13.346;2022-07-29T01:53:29;101402.00;;;21.20
15845;BMP180;50807;52.436;13.346;2022-07-29T01:54:10;101414.00;;;21.20
15845;BMP180;50807;52.436;13.346;2022-07-29T01:54:49;101411.00;;;21.20
15845;BMP180;50807;52.436;13.346;2022-07-29T01:55:26;101399.00;;;21.20
15845;BMP180;50807;52.436;13.346;2022-07-29T01:56:01;101402.00;;;21.30
15845;BMP180;50807;52.436;13.346;2022-07-29T01:56:34;101399.00;;;21.30
15845;BMP180;50807;52.436;13.346;2022-07-29T01:57:09;101402.00;;;21.30
15845;BMP180;50807;52.436;13.346;2022-07-29T01:57:48;101402.00;;;21.30
15845;BMP180;50807;52.436;13.346;2022-07-29T01:58:20;101400.00;;;21.30
15845;BMP180;50807;52.436;13.346;2022-07-29T01:58:54;101402.00;;;21.30
15845;BMP180;50807;52.436;13.346;2022-07-29T01:59:29;101404.00;;;21.30
15845;BMP180;50807;52.436;13.346;2022-07-29T02:00:02;101396.00;;;21.30
15845;BMP180;50807;52.436;13.346;2022-07-29T02:00:37;101399.00;;;21.30
15845;BMP180;50807;52.436;13.346;2022-07-29T02:01:09;101401.00;;;21.30
15845;BMP180;50807;52.436;13.346;2022-07-29T02:01:43;101400.00;;;21.30
15845;BMP180;50807;52.436;13.346;2022-07-29T02:02:18;101405.00;;;21.30
15845;BMP180;50807;52.436;13.346;2022-07-29T02:02:51;101402.00;;;21.30
15845;BMP180;50807;52.436;13.346;2022-07-29T02:03:26;101400.00;;;21.30
15845;BMP180;50807;52.436;13.346;2022-07-29T02:04:02;101400.00;;;21.30
15845;BMP180;50807;52.436;13.346;2022-07-29T02:04:36;101399.00;;;21.30
15845;BMP180;50807;52.436;13.346;2022-07-29T02:05:12;101400.00;;;21.30
15845;BMP180;50807;52.436;13.346;2022-07-29T02:05:47;101395.00;;;21.30
15845;BMP180;50807;52.436;13.346;2022-07-29T02:06:21;101391.00;;;21.30
15845;BMP180;50807;52.436;13.346;2022-07-29T02:07:01;101396.00;;;21.20
15845;BMP180;50807;52.436;13.346;2022-07-29T02:07:34;101392.00;;;21.30
15845;BMP180;50807;52.436;13.346;2022-07-29T02:08:07;101399.00;;;21.30
15845;BMP180;50807;52.436;13.346;2022-07-29T02:08:40;101401.00;;;21.30
15845;BMP180;50807;52.436;13.346;2022-07-29T02:09:14;101396.00;;;21.30
15845;BMP180;50807;52.436;13.346;2022-07-29T02:09:49;101403.00;;;21.30
15845;BMP180;50807;52.436;13.346;2022-07-29T02:10:25;101409.00;;;21.30
15845;BMP180;50807;52.436;13.346;2022-07-29T02:10:58;101401.00;;;21.30
15845;BMP180;50807;52.436;13.346;2022-07-29T02:11:33;101402.00;;;21.30
15845;BMP180;50807;52.436;13.346;2022-07-29T02:12:07;101409.00;;;21.30
15845;BMP180;50807;52.436;13.346;2022-07-29T02:12:39;101406.00;;;21.30
15845;BMP180;50807;52.436;13.346;2022-07-29T02:13:15;101401.00;;;21.30
15845;BMP180;50807;52.436;13.346;2022-07-29T02:13:49;101406.00;;;21.30
15845;BMP180;50807;52.436;13.346;2022-07-29T02:14:23;101412.00;;;21.30
15845;BMP180;50807;52.436;13.346;2022-07-29T02:15:01;101413.00;;;21.20
15845;BMP180;50807;52.436;13.346;2022-07-29T02:15:35;101411.00;;;21.30
15845;BMP180;50807;52.436;13.346;2022-07-29T02:16:09;101411.00;;;21.30
15845;BMP180;50807;52.436;13.346;2022-07-29T02:16:43;101406.00;;;21.30
15845;BMP180;50807;52.436;13.346;2022-07-29T02:17:21;101410.00;;;21.20
15845;BMP180;50807;52.436;13.346;2022-07-29T02:17:58;101406.00;;;21.20
15845;BMP180;50807;52.436;13.346;2022-07-29T02:18:33;101403.00;;;21.20
15845;BMP180;50807;52.436;13.346;2022-07-29T02:19:06;101400.00;;;21.20
15845;BMP180;50807;52.436;13.346;2022-07-29T02:19:38;101405.00;;;21.30
15845;BMP180;50807;52.436;13.346;2022-07-29T02:20:12;101398.00;;;21.30
15845;BMP180;50807;52.436;13.346;2022-07-29T02:20:47;101407.00;;;21.20
15845;BMP180;50807;52.436;13.346;2022-07-29T02:21:24;101406.00;;;21.20
15845;BMP180;50807;52.436;13.346;2022-07-29T02:21:58;101405.00;;;21.20
15845;BMP180;50807;52.436;13.346;2022-07-29T02:22:33;101413.00;;;21.20
15845;BMP180;50807;52.436;13.346;2022-07-29T02:23:07;101408.00;;;21.30
15845;BMP180;50807;52.436;13.346;2022-07-29T02:23:41;101410.00;;;21.20
15845;BMP180;50807;52.436;13.346;2022-07-29T02:24:15;101412.00;;;21.20
15845;BMP180;50807;52.436;13.346;2022-07-29T02:24:50;101415.00;;;21.20
15845;BMP180;50807;52.436;13.346;2022-07-29T02:25:24;101408.00;;;21.30
15845;BMP180;50807;52.436;13.346;2022-07-29T02:25:56;101413.00;;;21.30
15845;BMP180;50807;52.436;13.346;2022-07-29T02:26:30;101411.00;;;21.30
15845;BMP180;50807;52.436;13.346;2022-07-29T02:27:04;101416.00;;;21.20
15845;BMP180;50807;52.436;13.346;2022-07-29T02:27:37;101419.00;;;21.20
15845;BMP180;50807;52.436;13.346;2022-07-29T02:28:09;101414.00;;;21.20
15845;BMP180;50807;52.436;13.346;2022-07-29T02:28:41;101412.00;;;21.30
15845;BMP180;50807;52.436;13.346;2022-07-29T02:29:14;101413.00;;;21.20
15845;BMP180;50807;52.436;13.346;2022-07-29T02:29:47;101411.00;;;21.30
15845;BMP180;50807;52.436;13.346;2022-07-29T02:30:22;101421.00;;;21.20
15845;BMP180;50807;52.436;13.346;2022-07-29T02:30:57;101420.00;;;21.20
15845;BMP180;50807;52.436;13.346;2022-07-29T02:31:33;101415.00;;;21.20
15845;BMP180;50807;52.436;13.346;2022-07-29T02:32:08;101420.00;;;21.20
15845;BMP180;50807;52.436;13.346;2022-07-29T02:32:43;101415.00;;;21.20
15845;BMP180;50807;52.436;13.346;2022-07-29T02:33:18;101419.00;;;21.20
15845;BMP180;50807;52.436;13.346;2022-07-29T02:33:51;101408.00;;;21.20
15845;BMP180;50807;52.436;13.346;2022-07-29T02:34:24;101414.00;;;21.30
15845;BMP180;50807;52.436;13.346;2022-07-29T02:34:56;101416.00;;;21.30
15845;BMP180;50807;52.436;13.346;2022-07-29T02:35:29;101414.00;;;21.30
15845;BMP180;50807;52.436;13.346;2022-07-29T02:36:01;101411.00;;;21.30
15845;BMP180;50807;52.436;13.346;2022-07-29T02:36:34;101414.00;;;21.30
15845;BMP180;50807;52.436;13.346;2022-07-29T02:37:05;101406.00;;;21.30
15845;BMP180;50807;52.436;13.346;2022-07-29T02:37:40;101411.00;;;21.30
15845;BMP180;50807;52.436;13.346;2022-07-29T02:38:15;101405.00;;;21.20
15845;BMP180;50807;52.436;13.346;2022-07-29T02:39:06;101414.00;;;21.20
15845;BMP180;50807;52.436;13.346;2022-07-29T02:39:41;101409.00;;;21.20
15845;BMP180;50807;52.436;13.346;2022-07-29T02:40:15;101407.00;;;21.20
15845;BMP180;50807;52.436;13.346;2022-07-29T02:40:48;101416.00;;;21.20
15845;BMP180;50807;52.436;13.346;2022-07-29T02:41:26;101407.00;;;21.20
15845;BMP180;50807;52.436;13.346;2022-07-29T02:42:05;101415.00;;;21.10
15845;BMP180;50807;52.436;13.346;2022-07-29T02:42:41;101414.00;;;21.10
15845;BMP180;50807;52.436;13.346;2022-07-29T02:43:13;101405.00;;;21.20
15845;BMP180;50807;52.436;13.346;2022-07-29T02:43:48;101410.00;;;21.20
15845;BMP180;50807;52.436;13.346;2022-07-29T02:44:23;101402.00;;;21.20
15845;BMP180;50807;52.436;13.346;2022-07-29T02:44:55;101412.00;;;21.20
15845;BMP180;50807;52.436;13.346;2022-07-29T02:45:29;101411.00;;;21.20
15845;BMP180;50807;52.436;13.346;2022-07-29T02:46:02;101413.00;;;21.20
15845;BMP180;50807;52.436;13.346;2022-07-29T02:46:37;101410.00;;;21.20
15845;BMP180;50807;52.436;13.346;2022-07-29T02:47:20;101409.00;;;21.20
15845;BMP180;50807;52.436;13.346;2022-07-29T02:47:53;101404.00;;;21.20
15845;BMP180;50807;52.436;13.346;2022-07-29T02:48:36;101411.00;;;21.10
15845;BMP180;50807;52.436;13.346;2022-07-29T02:49:16;101403.00;;;21.10
15845;BMP180;50807;52.436;13.346;2022-07-29T02:49:56;101411.00;;;21.10
15845;BMP180;50807;52.436;13.346;2022-07-29T02:50:35;101409.00;;;21.10
15845;BMP180;50807;52.436;13.346;2022-07-29T02:51:12;101405.00;;;21.10
15845;BMP180;50807;52.436;13.346;2022-07-29T02:51:49;101411.00;;;21.10
15845;BMP180;50807;52.436;13.346;2022-07-29T02:52:27;101411.00;;;21.10
15845;BMP180;50807;52.436;13.346;2022-07-29T02:53:09;101411.00;;;21.10
15845;BMP180;50807;52.436;13.346;2022-07-29T02:53:49;101408.00;;;21.10
15845;BMP180;50807;52.436;13.346;2022-07-29T02:54:44;101400.00;;;21.00
15845;BMP180;50807;52.436;13.346;2022-07-29T02:55:26;101402.00;;;21.00
15845;BMP180;50807;52.436;13.346;2022-07-29T02:56:06;101406.00;;;21.00
15845;BMP180;50807;52.436;13.346;2022-07-29T02:56:42;101412.00;;;21.00
15845;BMP180;50807;52.436;13.346;2022-07-29T02:57:22;101404.00;;;21.00
15845;BMP180;50807;52.436;13.346;2022-07-29T02:57:59;101405.00;;;21.00
15845;BMP180;50807;52.436;13.346;2022-07-29T02:58:34;101403.00;;;21.10
15845;BMP180;50807;52.436;13.346;2022-07-29T02:59:13;101410.00;;;21.10
15845;BMP180;50807;52.436;13.346;2022-07-29T02:59:48;101403.00;;;21.10
15845;BMP180;50807;52.436;13.346;2022-07-29T03:00:28;101409.00;;;21.10
15845;BMP180;50807;52.436;13.346;2022-07-29T03:01:03;101412.00;;;21.10
15845;BMP180;50807;52.436;13.346;2022-07-29T03:01:40;101406.00;;;21.10
15845;BMP180;50807;52.436;13.346;2022-07-29T03:02:13;101408.00;;;21.20
15845;BMP180;50807;52.436;13.346;2022-07-29T03:02:50;101405.00;;;21.10
15845;BMP180;50807;52.436;13.346;2022-07-29T03:03:28;101404.00;;;21.10
15845;BMP180;50807;52.436;13.346;2022-07-29T03:04:04;101403.00;;;21.10
15845;BMP180;50807;52.436;13.346;2022-07-29T03:04:37;101400.00;;;21.20
15845;BMP180;50807;52.436;13.346;2022-07-29T03:05:15;101403.00;;;21.10
15845;BMP180;50807;52.436;13.346;2022-07-29T03:05:47;101408.00;;;21.20
15845;BMP180;50807;52.436;13.346;2022-07-29T03:06:21;101406.00;;;21.20
15845;BMP180;50807;52.436;13.346;2022-07-29T03:06:53;101399.00;;;21.20
15845;BMP180;50807;52.436;13.346;2022-07-29T03:07:25;101408.00;;;21.20
15845;BMP180;50807;52.436;13.346;2022-07-29T03:08:00;101405.00;;;21.20
15845;BMP180;50807;52.436;13.346;2022-07-29T03:08:32;101414.00;;;21.20
15845;BMP180;50807;52.436;13.346;2022-07-29T03:09:07;101404.00;;;21.20
15845;BMP180;50807;52.436;13.346;2022-07-29T03:09:38;101408.00;;;21.20
15845;BMP180;50807;52.436;13.346;2022-07-29T03:10:12;101407.00;;;21.20
15845;BMP180;50807;52.436;13.346;2022-07-29T03:10:46;101406.00;;;21.20
15845;BMP180;50807;52.436;13.346;2022-07-29T03:11:18;101402.00;;;21.20
15845;BMP180;50807;52.436;13.346;2022-07-29T03:11:50;101404.00;;;21.20
15845;BMP180;50807;52.436;13.346;2022-07-29T03:12:21;101403.00;;;21.20
15845;BMP180;50807;52.436;13.346;2022-07-29T03:12:55;101400.00;;;21.20
15845;BMP180;50807;52.436;13.346;2022-07-29T03:13:27;101403.00;;;21.20
15845;BMP180;50807;52.436;13.346;2022-07-29T03:13:58;101405.00;;;21.20
15845;BMP180;50807;52.436;13.346;2022-07-29T03:14:30;101395.00;;;21.20
15845;BMP180;50807;52.436;13.346;2022-07-29T03:15:02;101403.00;;;21.20
15845;BMP180;50807;52.436;13.346;2022-07-29T03:15:36;101404.00;;;21.20
15845;BMP180;50807;52.436;13.346;2022-07-29T03:16:09;101398.00;;;21.20
15845;BMP180;50807;52.436;13.346;2022-07-29T03:16:41;101397.00;;;21.20